Airfield :







YOU CAN JOIN US ON...

 
LOGIN :

Register | Disclaimer

   EN    FR    IT 

 









Legend :    VFR   Marginal VFR   IFR   Intensive IFR   Very Intensive IFR
Visi :
Ceiling :
>= 8 km
>= 3000ft
5 to 8 km
1000 to 3000 ft
1500m to 5 km
500 to 1000 ft
800 to 1500m
200 to 500 ft
< 800m
< 200 ft
Symbols :   Thunderstorms  Fog  Heavy snow  Heavy precipitations  Wind > 20 kt






- Airport Elevation : 603 ft
- IATA code : LEB


KLEB - Lebanon Municipal

CURRENT METAR :
  • 110353Z AUTO 00000KT 10SM CLR 21/18 A2996 RMK AO2 SLP134 T02060183

EXPIRED METARs :
  • 110253Z AUTO 17004KT 10SM CLR 22/19 A2995 RMK AO2 SLP131 T02220194 51005
  • 110153Z 00000KT 10SM CLR 22/20 A2995 RMK AO2 SLP130 T02220200

TAF KLEB
Valid from the 11 at 00:00 until the 12 at 00:00 UTC


102324Z 1100/1124 33002KT P6SM SCT250
FM110900 00000KT 1/2SM FG OVC001
FM111300 20005KT P6SM BKN250
KZBW FIR / North America



MET'MAP, your aeronautical weather chart ! - Copyright ORBIFLY December 2007 - Disclaimer

ORBIFLY MET'MAP TEAM :

Programming & Development : Alexandra Zaïnal
Concept & original design : Baudouin d'Aumeries
Assistance for programming : Marc-Olivier Méhu
Technical & hardware support : Manuel Goepfert

Contact : metmap@orbifly.com




SOURCES & CREDITS :

   NOAA